Time;durP1;ratioP1;P1;durP2;ratioP2;P2;SDS_P1;SDS_P2;PMS_P1;PMS_P2;Temp;Humidity;BMP_temperature;BMP_pressure;BME280_temperature;BME280_humidity;BME280_pressure;Samples;Min_cycle;Max_cycle;Signal;HPM_P1;HPM_P2
2023/03/01 00:01:25;;;;;;;12.52;10.50;;;1.70;99.90;;;;;;5072322;28;20215;-84
2023/03/01 00:03:56;;;;;;;14.93;10.90;;;1.70;99.90;;;;;;5073291;28;20205;-84
2023/03/01 00:06:25;;;;;;;13.83;10.50;;;1.60;99.90;;;;;;5073740;28;20197;-84
2023/03/01 00:08:54;;;;;;;14.70;11.13;;;1.60;99.90;;;;;;5072896;28;20220;-84
2023/03/01 00:11:24;;;;;;;14.80;11.93;;;1.60;99.90;;;;;;5073400;28;20204;-84
2023/03/01 00:13:54;;;;;;;11.30;10.20;;;1.60;99.90;;;;;;5072741;28;20274;-84
2023/03/01 00:16:24;;;;;;;14.97;12.00;;;1.60;99.90;;;;;;5073173;28;20209;-84
2023/03/01 00:18:53;;;;;;;15.87;12.00;;;1.50;99.90;;;;;;5072302;28;20229;-84
2023/03/01 00:21:24;;;;;;;11.90;10.32;;;1.50;99.90;;;;;;5072869;28;20208;-84
2023/03/01 00:23:53;;;;;;;12.90;10.37;;;1.40;99.90;;;;;;5073077;28;20215;-83
2023/03/01 00:26:25;;;;;;;14.68;11.80;;;1.40;99.90;;;;;;5072900;28;20217;-84
2023/03/01 00:28:55;;;;;;;17.43;12.60;;;1.50;99.90;;;;;;5072503;28;20221;-84
2023/03/01 00:31:26;;;;;;;14.60;10.90;;;1.40;99.90;;;;;;5073320;28;20212;-84
2023/03/01 00:33:56;;;;;;;16.13;12.03;;;1.40;99.90;;;;;;5072747;28;20216;-84
2023/03/01 00:36:28;;;;;;;16.27;11.50;;;1.40;99.90;;;;;;5073148;28;20287;-84
2023/03/01 00:38:57;;;;;;;13.77;11.30;;;1.50;99.90;;;;;;5071543;28;20225;-84
2023/03/01 00:41:26;;;;;;;12.47;11.10;;;1.40;99.90;;;;;;5072811;28;20213;-84
2023/03/01 00:43:56;;;;;;;16.38;11.70;;;1.40;99.90;;;;;;5072743;28;20209;-84
2023/03/01 00:46:26;;;;;;;17.58;12.20;;;1.50;99.90;;;;;;5072595;28;20209;-84
2023/03/01 00:48:55;;;;;;;16.27;12.32;;;1.40;99.90;;;;;;5072415;28;20243;-84
2023/03/01 00:51:26;;;;;;;13.13;11.80;;;1.40;99.90;;;;;;5072858;28;20296;-84
2023/03/01 00:53:57;;;;;;;13.95;11.50;;;1.50;99.90;;;;;;5073085;28;20201;-84
2023/03/01 00:56:26;;;;;;;14.07;11.77;;;1.40;99.90;;;;;;5073020;28;20208;-84
2023/03/01 00:58:54;;;;;;;17.33;13.07;;;1.40;99.90;;;;;;5071559;28;20232;-84
2023/03/01 01:01:24;;;;;;;14.75;12.05;;;1.40;99.90;;;;;;5072573;28;20211;-84
2023/03/01 01:03:55;;;;;;;20.08;12.57;;;1.40;99.90;;;;;;5072071;28;20201;-84
2023/03/01 01:06:27;;;;;;;22.90;11.93;;;1.40;99.90;;;;;;5072695;28;20205;-83
2023/03/01 01:08:57;;;;;;;13.17;11.80;;;1.40;99.90;;;;;;5071794;28;20217;-84
2023/03/01 01:11:29;;;;;;;12.70;11.13;;;1.50;99.90;;;;;;5072446;28;20216;-82
2023/03/01 01:13:58;;;;;;;13.95;11.90;;;1.40;99.90;;;;;;5076005;28;20293;-82
2023/03/01 01:16:29;;;;;;;18.48;13.57;;;1.40;99.90;;;;;;5075925;28;20219;-83
2023/03/01 01:18:58;;;;;;;13.00;11.67;;;1.40;99.90;;;;;;5075967;28;20229;-83
2023/03/01 01:21:28;;;;;;;15.13;12.20;;;1.40;99.90;;;;;;5076500;28;20211;-82
2023/03/01 01:23:57;;;;;;;20.58;14.40;;;1.40;99.90;;;;;;5076898;28;20205;-83
2023/03/01 01:26:28;;;;;;;32.63;12.83;;;1.40;99.90;;;;;;5076091;28;20211;-83
2023/03/01 01:28:57;;;;;;;15.43;12.67;;;1.40;99.90;;;;;;5075036;28;20281;-83
2023/03/01 01:31:27;;;;;;;21.47;13.20;;;1.40;99.90;;;;;;5075834;28;20204;-83
2023/03/01 01:33:57;;;;;;;16.00;12.60;;;1.50;99.90;;;;;;5076382;28;20212;-83
2023/03/01 01:36:27;;;;;;;17.15;12.32;;;1.40;99.90;;;;;;5076213;28;20212;-81
2023/03/01 01:38:56;;;;;;;14.13;12.30;;;1.50;99.90;;;;;;5075210;28;20228;-81
2023/03/01 01:41:25;;;;;;;13.50;11.73;;;1.60;99.90;;;;;;5075672;28;20288;-80
2023/03/01 01:44:13;;;;;;;15.55;11.45;;;1.60;99.90;;;;;;5075854;28;20209;-80
2023/03/01 01:46:44;;;;;;;16.35;13.60;;;1.70;99.90;;;;;;5075205;28;20213;-80
2023/03/01 01:49:24;;;;;;;14.02;11.85;;;1.70;99.90;;;;;;5075679;28;20300;-80
2023/03/01 01:52:03;;;;;;;13.75;12.35;;;1.70;99.90;;;;;;5076045;28;20201;-80
2023/03/01 01:54:38;;;;;;;12.45;11.20;;;1.80;99.90;;;;;;5075184;28;20215;-82
2023/03/01 01:57:12;;;;;;;13.85;11.75;;;1.80;99.90;;;;;;5074858;28;20299;-82
2023/03/01 01:59:42;;;;;;;15.57;11.63;;;1.80;99.90;;;;;;5075184;28;20225;-82
2023/03/01 02:02:12;;;;;;;17.27;13.38;;;1.80;99.90;;;;;;5075313;28;20205;-82
2023/03/01 02:04:41;;;;;;;30.95;14.93;;;1.90;99.90;;;;;;5074644;28;20208;-82
2023/03/01 02:07:16;;;;;;;17.13;12.35;;;1.90;99.90;;;;;;5075259;28;20201;-82
2023/03/01 02:09:47;;;;;;;16.60;13.55;;;1.90;99.90;;;;;;5074793;28;20233;-82
2023/03/01 02:12:19;;;;;;;19.10;12.90;;;2.00;99.90;;;;;;5075117;28;20261;-82
2023/03/01 02:14:47;;;;;;;30.13;15.03;;;2.00;99.90;;;;;;5075369;28;20201;-82
2023/03/01 02:17:18;;;;;;;13.07;11.53;;;2.00;99.90;;;;;;5074992;28;20222;-82
2023/03/01 02:20:00;;;;;;;18.10;12.00;;;2.00;99.90;;;;;;5074943;28;20225;-82
2023/03/01 02:22:32;;;;;;;13.52;12.15;;;2.00;99.90;;;;;;5075034;28;20219;-82
2023/03/01 02:25:17;;;;;;;15.85;12.55;;;2.00;99.90;;;;;;5073790;28;20366;-82
2023/03/01 02:27:54;;;;;;;18.17;13.35;;;2.00;99.90;;;;;;5074524;28;20227;-82
2023/03/01 02:30:26;;;;;;;14.18;11.75;;;2.00;99.90;;;;;;5074832;28;20220;-82
2023/03/01 02:33:02;;;;;;;16.33;12.93;;;2.00;99.90;;;;;;5074902;28;20201;-82
2023/03/01 02:35:34;;;;;;;16.77;13.07;;;2.10;99.90;;;;;;5074535;28;20212;-82
2023/03/01 02:38:03;;;;;;;19.38;14.10;;;2.10;99.90;;;;;;5074021;28;20205;-82
2023/03/01 02:40:34;;;;;;;16.52;12.80;;;2.10;99.90;;;;;;5074645;28;20239;-82
2023/03/01 02:43:05;;;;;;;20.98;12.13;;;2.10;99.90;;;;;;5075094;28;20209;-82
2023/03/01 02:45:35;;;;;;;17.10;13.77;;;2.10;99.90;;;;;;5074486;28;20201;-82
2023/03/01 02:48:03;;;;;;;15.80;13.23;;;2.10;99.90;;;;;;5074273;28;20205;-82
2023/03/01 02:50:49;;;;;;;15.48;13.50;;;2.10;99.90;;;;;;5074280;28;20430;-82
2023/03/01 02:53:23;;;;;;;16.02;12.98;;;2.10;99.90;;;;;;5074813;28;20201;-82
2023/03/01 02:55:51;;;;;;;21.35;13.77;;;2.10;99.90;;;;;;5074861;28;20208;-82
2023/03/01 02:58:20;;;;;;;15.80;12.55;;;2.10;99.90;;;;;;5073579;28;20201;-82
2023/03/01 03:00:49;;;;;;;14.25;11.68;;;2.10;99.90;;;;;;5074447;28;20204;-82
2023/03/01 03:03:21;;;;;;;16.60;12.45;;;2.20;99.90;;;;;;5074171;28;20271;-82
2023/03/01 03:05:50;;;;;;;16.88;12.55;;;2.20;99.90;;;;;;5074107;28;20212;-83
2023/03/01 03:08:23;;;;;;;17.40;13.07;;;2.20;99.90;;;;;;5073544;28;20209;-83
2023/03/01 03:10:52;;;;;;;13.83;12.40;;;2.20;99.90;;;;;;5074085;28;20204;-83
2023/03/01 03:13:21;;;;;;;20.45;13.27;;;2.20;99.90;;;;;;5074154;28;20233;-83
2023/03/01 03:15:51;;;;;;;13.77;12.23;;;2.10;99.90;;;;;;5074001;28;20217;-83
2023/03/01 03:18:20;;;;;;;14.02;12.38;;;2.10;99.90;;;;;;5073300;28;20258;-82
2023/03/01 03:20:52;;;;;;;14.75;12.88;;;2.10;99.90;;;;;;5073613;28;20233;-83
2023/03/01 03:23:20;;;;;;;16.95;13.38;;;2.10;99.90;;;;;;5073875;28;20213;-83
2023/03/01 03:25:49;;;;;;;17.80;13.98;;;2.10;99.90;;;;;;5073814;28;20209;-83
2023/03/01 03:28:19;;;;;;;20.67;13.70;;;2.10;99.90;;;;;;5072767;28;20209;-83
2023/03/01 03:30:47;;;;;;;15.07;13.30;;;2.10;99.90;;;;;;5073732;28;20291;-83
2023/03/01 03:33:17;;;;;;;18.88;13.82;;;2.10;99.90;;;;;;5073550;28;20230;-83
2023/03/01 03:35:47;;;;;;;17.45;14.48;;;2.00;99.90;;;;;;5073514;28;20215;-83
2023/03/01 03:38:18;;;;;;;19.67;14.48;;;2.00;99.90;;;;;;5073348;28;20212;-83
2023/03/01 03:40:48;;;;;;;18.38;14.23;;;2.10;99.90;;;;;;5072738;28;20236;-83
2023/03/01 03:43:18;;;;;;;15.65;13.35;;;2.10;99.90;;;;;;5073172;28;20215;-83
2023/03/01 03:45:47;;;;;;;18.98;14.40;;;2.10;99.90;;;;;;5073136;28;20292;-83
2023/03/01 03:48:17;;;;;;;26.88;14.43;;;2.10;99.90;;;;;;5072620;28;20255;-83
2023/03/01 03:50:50;;;;;;;17.17;13.18;;;2.00;99.90;;;;;;5073616;28;20197;-83
2023/03/01 03:53:19;;;;;;;16.90;13.48;;;2.10;99.90;;;;;;5073322;28;20215;-83
2023/03/01 03:55:49;;;;;;;13.40;11.80;;;2.00;99.90;;;;;;5073336;28;20209;-83
2023/03/01 03:58:19;;;;;;;17.33;13.57;;;2.10;99.90;;;;;;5072704;28;20292;-83
2023/03/01 04:00:50;;;;;;;20.95;13.82;;;2.10;99.90;;;;;;5072860;28;20243;-83
2023/03/01 04:03:21;;;;;;;21.00;14.07;;;2.10;99.90;;;;;;5073112;28;20207;-83
2023/03/01 04:05:51;;;;;;;18.90;14.80;;;2.10;99.90;;;;;;5072073;28;20226;-83
2023/03/01 04:08:20;;;;;;;17.25;13.75;;;2.10;99.90;;;;;;5072262;28;20220;-83
2023/03/01 04:10:50;;;;;;;18.95;13.88;;;2.10;99.90;;;;;;5072485;28;20197;-83
2023/03/01 04:13:20;;;;;;;20.27;13.90;;;2.10;99.90;;;;;;5072962;28;20307;-83
2023/03/01 04:15:50;;;;;;;32.25;14.98;;;2.10;99.90;;;;;;5073184;28;20215;-83
2023/03/01 04:18:21;;;;;;;14.90;13.13;;;2.10;99.90;;;;;;5072610;28;20204;-83
2023/03/01 04:20:51;;;;;;;16.02;13.35;;;2.10;99.90;;;;;;5072643;28;20233;-83
2023/03/01 04:23:21;;;;;;;15.52;12.45;;;2.10;99.90;;;;;;5072974;28;20266;-83
2023/03/01 04:25:53;;;;;;;17.77;14.43;;;2.00;99.90;;;;;;5073056;28;20232;-83
2023/03/01 04:28:24;;;;;;;13.63;12.18;;;2.10;99.90;;;;;;5074931;28;20205;-80
2023/03/01 04:30:53;;;;;;;18.52;14.98;;;2.10;99.90;;;;;;5073271;28;20211;-81
2023/03/01 04:33:26;;;;;;;29.20;14.55;;;2.10;99.90;;;;;;5073048;28;20197;-83
2023/03/01 04:35:55;;;;;;;19.90;15.23;;;2.10;99.90;;;;;;5073024;28;20217;-83
2023/03/01 04:38:23;;;;;;;14.85;13.35;;;2.10;99.90;;;;;;5072611;28;20197;-83
2023/03/01 04:40:51;;;;;;;17.98;14.27;;;2.10;99.90;;;;;;5072058;28;20231;-83
2023/03/01 04:43:19;;;;;;;19.85;14.95;;;2.10;99.90;;;;;;5072564;28;20207;-83
2023/03/01 04:45:48;;;;;;;17.25;13.65;;;2.10;99.90;;;;;;5072919;28;20226;-83
2023/03/01 04:48:16;;;;;;;23.07;15.40;;;2.10;99.90;;;;;;5074481;28;20288;-83
2023/03/01 04:50:46;;;;;;;20.77;14.95;;;2.10;99.90;;;;;;5076432;28;20363;-83
2023/03/01 04:53:14;;;;;;;19.00;14.15;;;2.10;99.90;;;;;;5076719;28;20211;-82
2023/03/01 04:55:42;;;;;;;22.83;14.13;;;2.10;99.90;;;;;;5076715;28;20205;-83
2023/03/01 04:58:10;;;;;;;19.05;14.52;;;2.10;99.90;;;;;;5075938;28;20205;-83
2023/03/01 05:00:38;;;;;;;18.00;14.13;;;2.00;99.90;;;;;;5076471;28;20228;-83
2023/03/01 05:03:07;;;;;;;16.90;14.15;;;2.00;99.90;;;;;;5076601;28;20209;-83
2023/03/01 05:05:37;;;;;;;18.77;14.43;;;2.00;99.90;;;;;;5075944;28;20247;-83
2023/03/01 05:08:08;;;;;;;17.50;12.88;;;2.00;99.90;;;;;;5075838;28;20208;-83
2023/03/01 05:10:38;;;;;;;14.95;12.93;;;2.00;99.90;;;;;;5076164;28;20225;-83
2023/03/01 05:13:06;;;;;;;15.10;12.87;;;2.00;99.90;;;;;;5076217;28;20265;-83
2023/03/01 05:15:36;;;;;;;19.77;14.98;;;2.00;99.90;;;;;;5075978;28;20208;-83
2023/03/01 05:18:11;;;;;;;21.40;15.00;;;2.00;99.90;;;;;;5075763;28;20213;-83
2023/03/01 05:20:39;;;;;;;15.07;12.68;;;2.10;99.90;;;;;;5075893;28;20227;-82
2023/03/01 05:23:09;;;;;;;17.67;14.25;;;2.10;99.90;;;;;;5076371;28;20209;-83
2023/03/01 05:25:39;;;;;;;14.95;13.02;;;2.10;99.90;;;;;;5076294;28;20291;-83
2023/03/01 05:28:12;;;;;;;18.98;14.30;;;2.10;99.90;;;;;;5075457;28;20205;-83
2023/03/01 05:30:41;;;;;;;18.77;13.32;;;2.10;99.90;;;;;;5076448;28;20247;-83
2023/03/01 05:33:13;;;;;;;15.80;13.07;;;2.10;99.90;;;;;;5075696;28;20287;-83
2023/03/01 05:35:42;;;;;;;18.50;14.45;;;2.10;99.90;;;;;;5076253;28;20259;-83
2023/03/01 05:38:14;;;;;;;16.10;13.57;;;2.10;99.90;;;;;;5075527;28;20220;-83
2023/03/01 05:40:44;;;;;;;19.42;13.65;;;2.10;99.90;;;;;;5075473;28;20217;-83
2023/03/01 05:43:13;;;;;;;20.10;14.85;;;2.10;99.90;;;;;;5075415;28;20201;-83
2023/03/01 05:45:43;;;;;;;18.80;13.85;;;2.10;99.90;;;;;;5075474;28;20291;-83
2023/03/01 05:48:12;;;;;;;14.73;13.05;;;2.10;99.90;;;;;;5075605;28;20209;-83
2023/03/01 05:50:42;;;;;;;16.90;13.57;;;2.10;99.90;;;;;;5075776;28;20224;-83
2023/03/01 05:53:15;;;;;;;14.95;13.13;;;2.10;99.90;;;;;;5075661;28;20214;-83
2023/03/01 05:55:45;;;;;;;17.58;12.88;;;2.10;99.90;;;;;;5075584;28;20212;-83
2023/03/01 05:58:16;;;;;;;15.82;12.85;;;2.00;99.90;;;;;;5075833;28;20213;-83
2023/03/01 06:00:46;;;;;;;18.98;14.55;;;2.00;99.90;;;;;;5075394;28;20217;-83
2023/03/01 06:03:16;;;;;;;16.05;13.35;;;2.10;99.90;;;;;;5075519;28;20223;-83
2023/03/01 06:05:45;;;;;;;17.52;14.38;;;2.10;99.90;;;;;;5075274;28;20227;-83
2023/03/01 06:08:15;;;;;;;16.52;14.35;;;2.10;99.90;;;;;;5075645;28;20201;-83
2023/03/01 06:10:43;;;;;;;15.38;13.38;;;2.20;99.90;;;;;;5075523;28;20204;-81
2023/03/01 06:13:11;;;;;;;14.48;12.38;;;2.20;99.90;;;;;;5075049;28;20201;-81
2023/03/01 06:15:39;;;;;;;18.75;14.50;;;2.20;99.90;;;;;;5075327;28;20213;-81
2023/03/01 06:18:07;;;;;;;16.05;13.13;;;2.20;99.90;;;;;;5074460;28;20233;-81
2023/03/01 06:20:36;;;;;;;16.42;13.98;;;2.30;99.90;;;;;;5074979;28;20226;-81
2023/03/01 06:23:04;;;;;;;22.05;13.68;;;2.30;99.90;;;;;;5074889;28;20264;-80
2023/03/01 06:25:34;;;;;;;16.42;13.57;;;2.30;99.90;;;;;;5074833;28;20198;-81
2023/03/01 06:28:02;;;;;;;15.98;14.05;;;2.30;99.90;;;;;;5074885;28;20213;-81
2023/03/01 06:30:31;;;;;;;16.48;13.55;;;2.40;99.90;;;;;;5075024;28;20229;-81
2023/03/01 06:33:01;;;;;;;18.15;14.25;;;2.40;99.90;;;;;;5074965;28;20212;-83
2023/03/01 06:35:30;;;;;;;17.77;13.75;;;2.40;99.90;;;;;;5074694;28;20221;-83
2023/03/01 06:38:00;;;;;;;20.17;14.32;;;2.50;99.90;;;;;;5074254;28;20237;-83
2023/03/01 06:40:29;;;;;;;23.45;14.52;;;2.50;99.90;;;;;;5074498;28;20228;-82
2023/03/01 06:43:00;;;;;;;17.88;13.25;;;2.50;99.90;;;;;;5074693;28;20219;-83
2023/03/01 06:45:28;;;;;;;16.10;13.52;;;2.60;99.90;;;;;;5074496;28;20307;-83
2023/03/01 06:48:05;;;;;;;15.15;13.07;;;2.60;99.90;;;;;;5074786;28;20201;-81
2023/03/01 06:50:33;;;;;;;19.17;13.43;;;2.60;99.90;;;;;;5061105;28;20225;-81
2023/03/01 06:53:02;;;;;;;21.23;13.90;;;2.70;99.90;;;;;;5056979;28;20209;-81
2023/03/01 06:55:30;;;;;;;13.20;11.80;;;2.70;99.90;;;;;;5072548;28;20201;-82
2023/03/01 06:58:01;;;;;;;15.00;13.18;;;2.70;99.90;;;;;;5054978;28;20206;-82
2023/03/01 07:00:33;;;;;;;16.52;13.18;;;2.80;99.90;;;;;;5076846;28;20231;-81
2023/03/01 07:03:03;;;;;;;16.92;13.75;;;2.80;99.90;;;;;;5088482;28;20219;-82
2023/03/01 07:05:32;;;;;;;19.15;14.85;;;2.80;99.90;;;;;;5073885;28;20262;-81
2023/03/01 07:08:00;;;;;;;15.82;12.98;;;2.90;99.90;;;;;;5080762;28;20197;-82
2023/03/01 07:10:28;;;;;;;13.48;12.02;;;2.90;99.90;;;;;;5073423;28;20233;-82
2023/03/01 07:12:57;;;;;;;15.38;12.73;;;2.90;99.90;;;;;;5073288;28;20205;-81
2023/03/01 07:15:28;;;;;;;15.52;13.80;;;2.90;99.90;;;;;;5076576;28;20209;-81
2023/03/01 07:17:57;;;;;;;17.33;13.85;;;3.00;99.90;;;;;;5091004;28;20205;-81
2023/03/01 07:20:26;;;;;;;20.15;13.38;;;3.00;99.90;;;;;;5073566;28;20229;-82
2023/03/01 07:22:55;;;;;;;19.75;13.20;;;3.00;99.90;;;;;;5073452;28;20227;-81
2023/03/01 07:25:23;;;;;;;14.95;12.30;;;3.00;99.90;;;;;;5073464;28;20207;-82
2023/03/01 07:27:52;;;;;;;17.67;13.57;;;3.00;99.90;;;;;;5073247;28;20204;-81
2023/03/01 07:30:21;;;;;;;13.40;12.00;;;3.10;99.90;;;;;;5053639;28;20265;-82
2023/03/01 07:32:51;;;;;;;16.48;13.02;;;3.10;99.90;;;;;;5064202;28;20197;-81
2023/03/01 07:35:22;;;;;;;16.60;13.55;;;3.20;99.90;;;;;;5093689;28;20200;-81
2023/03/01 07:37:51;;;;;;;20.20;12.93;;;3.20;99.90;;;;;;5093153;28;20219;-81
2023/03/01 07:40:19;;;;;;;19.42;13.82;;;3.30;99.90;;;;;;5062030;28;20223;-82
2023/03/01 07:42:47;;;;;;;29.27;14.82;;;3.30;99.90;;;;;;5053120;28;20234;-81
2023/03/01 07:45:15;;;;;;;15.82;13.20;;;3.40;99.90;;;;;;5052862;28;20292;-81
2023/03/01 07:47:44;;;;;;;14.95;13.00;;;3.40;99.90;;;;;;5052812;28;20213;-81
2023/03/01 07:50:15;;;;;;;16.75;14.30;;;3.50;99.90;;;;;;5055950;28;20309;-81
2023/03/01 07:52:45;;;;;;;13.52;12.10;;;3.50;99.90;;;;;;5053155;28;20212;-81
2023/03/01 07:55:14;;;;;;;17.02;13.13;;;3.50;99.90;;;;;;5061889;28;20211;-82
2023/03/01 07:57:43;;;;;;;15.75;13.02;;;3.50;99.90;;;;;;5072421;28;20209;-83
2023/03/01 08:00:13;;;;;;;20.23;14.95;;;3.60;99.90;;;;;;5074666;28;20228;-81
2023/03/01 08:02:41;;;;;;;20.40;13.00;;;3.60;99.90;;;;;;5093003;28;20223;-81
2023/03/01 08:05:10;;;;;;;20.00;14.00;;;3.60;99.90;;;;;;5092984;28;20212;-81
2023/03/01 08:07:40;;;;;;;18.85;13.23;;;3.60;99.90;;;;;;5081594;28;20201;-81
2023/03/01 08:10:09;;;;;;;14.35;12.75;;;3.70;99.90;;;;;;5072036;28;20232;-81
2023/03/01 08:12:38;;;;;;;17.98;13.82;;;3.80;99.90;;;;;;5072777;28;20200;-81
2023/03/01 08:15:07;;;;;;;19.67;12.88;;;3.90;99.90;;;;;;5058805;28;20225;-81
2023/03/01 08:17:35;;;;;;;16.83;13.70;;;3.90;99.90;;;;;;5088577;28;20192;-81
2023/03/01 08:20:06;;;;;;;22.90;14.20;;;3.90;99.90;;;;;;5093136;28;20228;-81
2023/03/01 08:22:34;;;;;;;25.20;13.85;;;4.00;99.90;;;;;;5051860;28;20298;-81
2023/03/01 08:25:04;;;;;;;21.30;13.45;;;4.00;99.90;;;;;;5052688;28;20213;-81
2023/03/01 08:27:33;;;;;;;15.00;13.38;;;4.10;99.90;;;;;;5058630;28;20243;-85
2023/03/01 08:30:01;;;;;;;17.17;13.25;;;4.10;99.90;;;;;;5072464;28;20229;-85
2023/03/01 08:32:29;;;;;;;19.67;14.43;;;4.30;99.90;;;;;;5072551;28;20224;-81
2023/03/01 08:34:58;;;;;;;15.18;13.68;;;4.30;99.90;;;;;;5072879;28;20222;-81
2023/03/01 08:37:27;;;;;;;19.50;14.63;;;4.40;99.90;;;;;;5071945;28;20252;-82
2023/03/01 08:39:55;;;;;;;23.63;15.13;;;4.50;99.90;;;;;;5070563;28;20252;-81
2023/03/01 08:42:25;;;;;;;19.33;14.80;;;4.60;99.90;;;;;;5058537;28;20311;-81
2023/03/01 08:44:54;;;;;;;18.98;14.00;;;4.50;99.90;;;;;;5082703;28;20204;-81
2023/03/01 08:47:22;;;;;;;29.55;16.60;;;4.60;99.90;;;;;;5092263;28;20214;-81
2023/03/01 08:49:51;;;;;;;24.42;14.98;;;4.80;99.90;;;;;;5089772;28;20235;-81
2023/03/01 08:52:20;;;;;;;16.67;14.18;;;5.00;99.90;;;;;;5054595;28;20197;-81
2023/03/01 08:54:49;;;;;;;18.35;15.48;;;5.10;99.90;;;;;;5063445;28;20198;-81
2023/03/01 08:57:17;;;;;;;18.38;14.70;;;5.30;99.90;;;;;;5051622;28;20269;-81
2023/03/01 08:59:47;;;;;;;15.43;13.88;;;5.40;99.90;;;;;;5068640;28;20221;-82
2023/03/01 09:02:17;;;;;;;17.17;13.65;;;5.50;99.90;;;;;;5082132;28;20213;-81
2023/03/01 09:04:46;;;;;;;21.10;15.77;;;5.40;99.90;;;;;;5092359;28;20220;-81
2023/03/01 09:07:14;;;;;;;21.55;15.85;;;5.40;99.90;;;;;;5083805;28;20219;-81
2023/03/01 09:09:43;;;;;;;15.57;13.05;;;5.50;99.90;;;;;;5071954;28;20228;-81
2023/03/01 09:12:11;;;;;;;20.98;15.57;;;5.60;99.90;;;;;;5072072;28;20203;-81
2023/03/01 09:14:41;;;;;;;16.70;14.40;;;5.70;99.90;;;;;;5071980;28;20212;-81
2023/03/01 09:17:10;;;;;;;17.90;13.68;;;5.90;99.90;;;;;;5071856;28;20228;-81
2023/03/01 09:19:39;;;;;;;16.95;14.07;;;6.20;99.90;;;;;;5070551;28;20233;-81
2023/03/01 09:22:07;;;;;;;15.55;13.55;;;6.40;99.90;;;;;;5072211;28;20171;-81
2023/03/01 09:24:36;;;;;;;21.25;14.63;;;6.70;99.90;;;;;;5067324;28;20193;-81
2023/03/01 09:27:08;;;;;;;19.70;14.40;;;6.90;99.90;;;;;;5056673;28;20202;-82
2023/03/01 09:29:37;;;;;;;22.02;14.52;;;7.20;99.90;;;;;;5051975;28;20244;-83
2023/03/01 09:32:06;;;;;;;15.18;12.85;;;7.30;99.90;;;;;;5052033;28;20210;-83
2023/03/01 09:35:00;;;;;;;17.77;13.82;;;7.40;99.90;;;;;;5062886;28;20205;-82
2023/03/01 09:37:25;;;;;;;17.02;13.35;;;7.30;99.90;;;;;;5059504;28;20208;-83
2023/03/01 09:39:53;;;;;;;17.42;12.93;;;7.30;99.90;;;;;;5067835;28;20225;-83
2023/03/01 09:42:22;;;;;;;20.63;13.90;;;7.30;99.90;;;;;;5069131;28;20228;-83
2023/03/01 09:44:54;;;;;;;15.48;13.00;;;7.30;99.90;;;;;;5061306;28;20212;-83
2023/03/01 09:47:24;;;;;;;16.35;13.85;;;7.50;99.90;;;;;;5056022;28;20212;-83
2023/03/01 09:50:03;;;;;;;21.40;14.98;;;7.30;99.90;;;;;;5087763;28;20231;-83
2023/03/01 09:52:39;;;;;;;18.38;13.38;;;7.20;99.90;;;;;;5070607;28;20189;-83
2023/03/01 09:55:13;;;;;;;15.15;12.88;;;7.30;99.90;;;;;;5055326;28;20209;-83
2023/03/01 09:57:48;;;;;;;16.40;12.18;;;7.40;99.90;;;;;;5073820;28;20276;-83
2023/03/01 10:00:28;;;;;;;15.63;11.32;;;7.10;99.90;;;;;;5071843;28;20227;-83
2023/03/01 10:03:02;;;;;;;15.45;11.88;;;7.10;99.90;;;;;;5074074;28;20221;-83
2023/03/01 10:05:40;;;;;;;15.30;12.60;;;7.30;99.90;;;;;;5076658;28;20205;-83
2023/03/01 10:08:29;;;;;;;11.48;9.93;;;7.30;99.90;;;;;;5084829;28;20224;-83
2023/03/01 10:10:58;;;;;;;16.20;11.85;;;7.20;99.90;;;;;;5095200;28;20201;-83
2023/03/01 10:13:32;;;;;;;15.82;12.48;;;7.00;99.90;;;;;;5095376;28;20197;-83
2023/03/01 10:16:05;;;;;;;14.85;11.63;;;7.00;99.90;;;;;;5095194;28;20204;-83
2023/03/01 10:18:37;;;;;;;13.50;11.98;;;6.90;99.90;;;;;;5088386;28;20203;-83
2023/03/01 10:21:15;;;;;;;14.88;11.30;;;6.90;99.90;;;;;;5074844;28;20205;-83
2023/03/01 10:23:44;;;;;;;11.85;10.65;;;7.00;99.90;;;;;;5074673;28;20220;-82
2023/03/01 10:26:28;;;;;;;12.90;11.13;;;6.90;99.90;;;;;;5075865;28;20204;-83
2023/03/01 10:29:04;;;;;;;16.40;10.85;;;7.10;99.90;;;;;;5074510;28;20208;-83
2023/03/01 10:31:40;;;;;;;13.02;11.70;;;7.10;99.90;;;;;;5088343;28;20196;-83
2023/03/01 10:34:14;;;;;;;17.55;12.82;;;7.00;99.90;;;;;;5055752;28;20204;-83
2023/03/01 10:36:48;;;;;;;14.40;11.60;;;7.10;99.90;;;;;;5054353;28;20244;-83
2023/03/01 10:39:19;;;;;;;14.25;10.18;;;7.30;99.90;;;;;;5057991;28;20218;-83
2023/03/01 10:41:59;;;;;;;12.20;10.32;;;7.80;99.90;;;;;;5055241;28;20244;-82
2023/03/01 10:44:40;;;;;;;13.07;10.82;;;8.40;99.90;;;;;;5053115;28;20232;-83
2023/03/01 10:47:16;;;;;;;13.32;11.07;;;9.30;99.90;;;;;;5057077;28;20209;-83
2023/03/01 10:49:59;;;;;;;13.82;11.32;;;9.80;99.90;;;;;;5053928;28;20221;-83
2023/03/01 10:52:32;;;;;;;15.23;10.73;;;10.00;99.30;;;;;;5053973;28;20198;-83
2023/03/01 10:55:04;;;;;;;10.68;9.68;;;10.00;98.40;;;;;;5053422;28;20198;-83
2023/03/01 10:57:39;;;;;;;13.35;10.35;;;10.10;98.40;;;;;;5053373;28;20210;-84
2023/03/01 11:00:23;;;;;;;11.93;10.73;;;10.40;97.90;;;;;;5053499;28;20226;-83
2023/03/01 11:03:04;;;;;;;11.57;9.85;;;10.20;97.30;;;;;;5053703;28;20289;-84
2023/03/01 11:05:33;;;;;;;11.48;10.27;;;10.20;97.00;;;;;;5060038;28;20207;-83
2023/03/01 11:08:04;;;;;;;12.98;10.73;;;10.10;97.30;;;;;;5066283;28;20194;-84
2023/03/01 11:10:35;;;;;;;14.85;10.90;;;10.10;97.50;;;;;;5053450;28;20228;-82
2023/03/01 11:13:15;;;;;;;12.30;10.63;;;10.50;97.40;;;;;;5053304;28;20216;-83
2023/03/01 11:15:44;;;;;;;12.32;10.18;;;10.90;97.40;;;;;;5053340;28;20214;-83
2023/03/01 11:18:21;;;;;;;13.77;10.60;;;11.10;96.00;;;;;;5052948;28;20292;-82
2023/03/01 11:21:05;;;;;;;9.45;8.43;;;11.20;95.60;;;;;;5053159;28;20220;-82
2023/03/01 11:23:38;;;;;;;12.05;8.50;;;11.50;95.90;;;;;;5052188;28;20312;-83
2023/03/01 11:26:09;;;;;;;16.30;8.57;;;11.90;96.50;;;;;;5053477;28;20210;-82
2023/03/01 11:28:42;;;;;;;10.38;9.35;;;12.20;94.70;;;;;;5053024;28;20229;-82
2023/03/01 11:31:12;;;;;;;10.38;9.35;;;12.10;94.00;;;;;;5053262;28;20206;-82
2023/03/01 11:33:45;;;;;;;10.98;8.77;;;11.90;94.50;;;;;;5052892;28;20225;-82
2023/03/01 11:36:23;;;;;;;11.00;9.70;;;11.70;94.20;;;;;;5053037;28;20296;-82
2023/03/01 11:38:54;;;;;;;12.10;10.70;;;11.50;95.30;;;;;;5052849;28;20231;-82
2023/03/01 11:41:27;;;;;;;12.63;10.30;;;11.30;95.00;;;;;;5052903;28;20209;-82
2023/03/01 11:44:00;;;;;;;15.07;11.10;;;11.10;95.90;;;;;;5052730;28;20214;-82
2023/03/01 11:46:44;;;;;;;14.05;11.55;;;11.00;95.10;;;;;;5052828;28;20201;-82
2023/03/01 11:49:43;;;;;;;12.23;10.85;;;11.00;95.70;;;;;;5052868;28;20233;-82
2023/03/01 11:52:21;;;;;;;13.20;11.32;;;10.80;96.30;;;;;;5053047;28;20212;-83
2023/03/01 11:55:06;;;;;;;15.40;13.00;;;10.70;95.60;;;;;;5053195;28;20205;-83
2023/03/01 11:57:52;;;;;;;13.02;10.57;;;10.40;96.10;;;;;;5052376;28;20201;-82
2023/03/01 12:00:44;;;;;;;14.93;11.40;;;10.10;95.90;;;;;;5053229;28;20221;-82
2023/03/01 12:03:34;;;;;;;10.40;9.27;;;9.90;97.60;;;;;;5053246;28;20205;-82
2023/03/01 12:06:28;;;;;;;12.95;10.00;;;9.80;97.30;;;;;;5053372;28;20217;-83
2023/03/01 12:09:15;;;;;;;13.93;11.90;;;9.70;97.60;;;;;;5052421;28;20217;-82
2023/03/01 12:12:10;;;;;;;24.52;11.45;;;9.90;98.10;;;;;;5052951;28;20212;-82
2023/03/01 12:15:00;;;;;;;13.52;10.88;;;10.00;97.10;;;;;;5052700;28;20194;-82
2023/03/01 12:17:59;;;;;;;12.68;10.77;;;9.90;97.70;;;;;;5052602;28;20213;-82
2023/03/01 12:20:35;;;;;;;13.60;9.30;;;9.70;98.00;;;;;;5052543;28;20229;-82
2023/03/01 12:23:24;;;;;;;12.45;10.13;;;9.70;98.20;;;;;;5052777;28;20207;-82
2023/03/01 12:25:58;;;;;;;11.15;10.00;;;9.60;97.90;;;;;;5052346;28;20245;-82
2023/03/01 12:28:51;;;;;;;13.15;11.38;;;9.50;98.40;;;;;;5052273;28;20207;-82
2023/03/01 12:32:01;;;;;;;11.70;10.27;;;9.50;98.60;;;;;;5052773;28;20202;-82
2023/03/01 12:34:52;;;;;;;13.98;11.55;;;9.60;98.00;;;;;;5039207;28;20202;-83
2023/03/01 12:37:30;;;;;;;11.60;10.20;;;9.50;98.50;;;;;;5029931;28;20213;-83
2023/03/01 12:40:17;;;;;;;13.35;10.82;;;9.50;98.90;;;;;;5052636;28;20240;-83
2023/03/01 12:42:57;;;;;;;10.68;9.60;;;9.60;98.60;;;;;;5052621;28;20292;-83
2023/03/01 12:45:44;;;;;;;12.20;10.73;;;9.60;98.70;;;;;;5052672;28;20221;-83
2023/03/01 12:48:31;;;;;;;19.40;10.90;;;9.60;98.50;;;;;;5052047;28;20208;-83
2023/03/01 12:51:03;;;;;;;13.07;11.32;;;9.70;99.00;;;;;;5052356;28;20204;-83
2023/03/01 12:53:36;;;;;;;11.50;10.25;;;9.80;98.90;;;;;;5052503;28;20213;-82
2023/03/01 12:56:09;;;;;;;12.45;9.57;;;9.80;98.80;;;;;;5052858;28;20206;-83
2023/03/01 12:58:42;;;;;;;11.75;10.38;;;9.70;98.30;;;;;;5052188;28;20232;-83
2023/03/01 13:01:23;;;;;;;11.30;9.75;;;9.80;98.70;;;;;;5052554;28;20206;-83